Time;durP1;ratioP1;P1;durP2;ratioP2;P2;SDS_P1;SDS_P2;PMS_P1;PMS_P2;Temp;Humidity;BMP_temperature;BMP_pressure;BME280_temperature;BME280_humidity;BME280_pressure;Samples;Min_cycle;Max_cycle;Signal;HPM_P1;HPM_P2
2024/01/25 00:01:22;;;;;;;14.30;9.52;;;;;;;2.83;53.64;94383.63;5109902;28;20521;-70
2024/01/25 00:03:47;;;;;;;17.10;11.13;;;;;;;2.68;54.22;94366.94;5109725;28;20497;-70
2024/01/25 00:06:13;;;;;;;18.75;13.00;;;;;;;2.85;54.39;94380.72;5109198;28;20036;-70
2024/01/25 00:08:38;;;;;;;18.40;12.18;;;;;;;2.77;54.12;94347.03;5109178;28;20652;-70
2024/01/25 00:11:04;;;;;;;22.92;13.25;;;;;;;3.05;53.81;94361.69;5109255;28;20035;-70
2024/01/25 00:13:30;;;;;;;20.90;13.23;;;;;;;3.28;53.33;94370.00;5110333;28;20016;-70
2024/01/25 00:15:55;;;;;;;20.40;11.40;;;;;;;3.37;53.10;94352.72;5109999;28;20039;-70
2024/01/25 00:18:21;;;;;;;19.23;12.05;;;;;;;3.40;52.77;94352.19;5110453;28;20031;-70
2024/01/25 00:20:46;;;;;;;19.13;12.07;;;;;;;3.37;52.35;94300.13;5110073;28;20043;-70
2024/01/25 00:23:12;;;;;;;18.10;11.15;;;;;;;3.63;51.88;94289.69;5110428;28;20488;-69
2024/01/25 00:25:38;;;;;;;16.58;11.35;;;;;;;3.70;51.69;94269.22;5095315;28;20087;-70
2024/01/25 00:28:03;;;;;;;16.48;11.35;;;;;;;3.68;51.05;94234.47;5114546;28;20080;-70
2024/01/25 00:30:29;;;;;;;15.02;10.07;;;;;;;3.78;50.85;94224.78;5113407;28;20522;-70
2024/01/25 00:32:55;;;;;;;15.90;10.50;;;;;;;3.72;51.47;94236.31;5113964;28;20040;-69
2024/01/25 00:35:21;;;;;;;15.75;10.02;;;;;;;3.36;52.37;94240.69;5113849;28;20031;-70
2024/01/25 00:37:47;;;;;;;18.23;13.25;;;;;;;3.48;52.04;94243.09;5113825;28;20079;-70
2024/01/25 00:40:13;;;;;;;17.65;12.10;;;;;;;3.56;51.44;94247.88;5112475;28;20020;-70
2024/01/25 00:42:52;;;;;;;27.42;16.40;;;;;;;3.52;51.91;94248.66;5095314;28;20042;-70
2024/01/25 00:45:19;;;;;;;28.35;16.48;;;;;;;2.51;52.96;94264.66;5095366;28;20023;-70
2024/01/25 00:47:45;;;;;;;27.25;14.43;;;;;;;2.40;54.75;94305.78;5095203;28;20028;-70
2024/01/25 00:50:11;;;;;;;28.30;16.25;;;;;;;2.71;53.93;94290.25;5113142;28;20027;-70
2024/01/25 00:52:37;;;;;;;26.90;15.73;;;;;;;2.52;54.66;94263.59;5112763;28;20104;-70
2024/01/25 00:55:03;;;;;;;27.55;16.40;;;;;;;2.73;53.70;94246.16;5113847;28;20052;-70
2024/01/25 00:57:29;;;;;;;30.80;16.45;;;;;;;2.87;53.55;94245.47;5112965;28;20040;-70
2024/01/25 00:59:55;;;;;;;25.67;16.95;;;;;;;2.86;53.64;94264.88;5113530;28;20032;-70
2024/01/25 01:02:22;;;;;;;24.65;15.20;;;;;;;2.93;54.09;94262.06;5113451;28;20058;-70
2024/01/25 01:04:48;;;;;;;27.67;16.33;;;;;;;2.94;53.80;94225.00;5113327;28;20030;-70
2024/01/25 01:07:13;;;;;;;26.65;15.77;;;;;;;3.17;53.50;94265.84;5113798;28;20126;-70
2024/01/25 01:09:39;;;;;;;24.40;16.50;;;;;;;3.14;53.62;94268.97;5113261;28;20633;-70
2024/01/25 01:12:04;;;;;;;23.88;14.27;;;;;;;2.38;54.72;94260.63;5113188;28;20031;-70
2024/01/25 01:14:30;;;;;;;21.70;15.45;;;;;;;2.14;55.80;94261.19;5113078;28;20032;-70
2024/01/25 01:16:55;;;;;;;23.83;15.45;;;;;;;2.66;55.52;94279.72;5112635;28;20055;-70
2024/01/25 01:19:21;;;;;;;23.65;15.77;;;;;;;2.94;54.80;94274.13;5114091;28;20043;-70
2024/01/25 01:21:46;;;;;;;30.15;17.88;;;;;;;2.94;54.46;94269.66;5113012;28;20516;-70
2024/01/25 01:24:12;;;;;;;25.70;16.90;;;;;;;3.06;54.24;94251.06;5112880;28;20069;-70
2024/01/25 01:26:37;;;;;;;22.40;16.23;;;;;;;3.37;53.67;94234.41;5112435;28;20097;-70
2024/01/25 01:29:03;;;;;;;28.88;16.92;;;;;;;3.35;52.94;94204.13;5112761;28;20088;-70
2024/01/25 01:31:29;;;;;;;26.42;15.43;;;;;;;3.20;52.95;94197.00;5113355;28;20026;-70
2024/01/25 01:33:54;;;;;;;27.05;14.65;;;;;;;3.18;53.34;94179.91;5094412;28;20051;-70
2024/01/25 01:36:20;;;;;;;20.88;13.45;;;;;;;3.38;53.81;94214.94;5112501;28;20385;-70
2024/01/25 01:38:46;;;;;;;12.52;9.35;;;;;;;3.33;53.92;94193.13;5112933;28;20074;-70
2024/01/25 01:41:12;;;;;;;6.38;3.35;;;;;;;3.34;55.67;94198.09;5112437;28;20024;-70
2024/01/25 01:43:38;;;;;;;3.20;1.10;;;;;;;3.37;58.97;94186.28;5112107;28;20047;-70
2024/01/25 01:46:11;;;;;;;1.55;0.90;;;;;;;3.78;59.21;94197.66;5094485;28;20051;-70
2024/01/25 01:48:39;;;;;;;0.85;0.85;;;;;;;3.93;59.18;94191.63;5094041;28;20119;-70
2024/01/25 01:51:05;;;;;;;1.00;0.90;;;;;;;4.00;58.61;94168.50;5094047;28;20114;-70
2024/01/25 01:53:32;;;;;;;1.63;1.52;;;;;;;4.18;57.76;94168.75;5112500;28;20451;-70
2024/01/25 01:55:58;;;;;;;0.95;0.95;;;;;;;4.36;56.78;94182.44;5112353;28;20034;-70
2024/01/25 01:58:24;;;;;;;1.58;0.82;;;;;;;4.44;55.79;94168.75;5112578;28;20027;-70
2024/01/25 02:00:50;;;;;;;0.75;0.75;;;;;;;4.53;55.12;94151.34;5111563;28;20031;-70
2024/01/25 02:03:16;;;;;;;0.70;0.70;;;;;;;4.66;55.35;94177.13;5112101;28;20039;-70
2024/01/25 02:05:41;;;;;;;1.00;0.80;;;;;;;4.52;55.38;94162.94;5112052;28;20679;-70
2024/01/25 02:08:07;;;;;;;1.02;0.73;;;;;;;4.71;55.37;94153.41;5111996;28;20043;-70
2024/01/25 02:10:33;;;;;;;0.80;0.80;;;;;;;4.62;55.79;94150.53;5111688;28;20030;-70
2024/01/25 02:12:58;;;;;;;0.85;0.80;;;;;;;4.57;55.98;94147.13;5112202;28;20043;-70
2024/01/25 02:15:24;;;;;;;1.65;0.90;;;;;;;4.79;55.85;94160.78;5111793;28;20036;-69
2024/01/25 02:17:49;;;;;;;2.15;0.90;;;;;;;4.90;55.74;94172.84;5112362;28;20051;-70
2024/01/25 02:20:17;;;;;;;2.80;1.00;;;;;;;5.03;55.52;94177.56;5112197;28;20444;-70
2024/01/25 02:22:43;;;;;;;1.67;1.55;;;;;;;4.99;55.25;94155.41;5111794;28;20019;-70
2024/01/25 02:25:08;;;;;;;0.75;0.70;;;;;;;5.08;55.43;94158.31;5112699;28;20106;-70
2024/01/25 02:27:38;;;;;;;0.80;0.80;;;;;;;5.10;55.54;94175.44;5111890;28;20101;-70
2024/01/25 02:30:07;;;;;;;0.70;0.70;;;;;;;5.03;55.71;94164.41;5093643;28;20118;-70
2024/01/25 02:32:33;;;;;;;1.25;0.80;;;;;;;5.17;55.73;94155.91;5111555;28;20063;-70
2024/01/25 02:34:58;;;;;;;2.28;1.00;;;;;;;5.09;56.26;94150.13;5093829;28;20107;-70
2024/01/25 02:37:24;;;;;;;0.77;0.77;;;;;;;5.27;56.55;94167.19;5112378;28;20102;-70
2024/01/25 02:39:50;;;;;;;2.42;1.13;;;;;;;5.09;56.65;94149.31;5112077;28;20118;-70
2024/01/25 02:42:16;;;;;;;0.80;0.80;;;;;;;5.29;56.35;94153.72;5111652;28;20043;-70
2024/01/25 02:44:42;;;;;;;0.90;0.80;;;;;;;5.24;56.47;94146.63;5111473;28;20036;-70
2024/01/25 02:47:07;;;;;;;2.10;0.70;;;;;;;5.34;55.46;94158.97;5110774;28;20593;-70
2024/01/25 02:49:33;;;;;;;0.93;0.90;;;;;;;5.14;56.12;94128.22;5111960;28;20119;-70
2024/01/25 02:51:58;;;;;;;2.08;0.80;;;;;;;5.20;56.40;94144.78;5111981;28;20021;-70
2024/01/25 02:54:24;;;;;;;1.27;0.90;;;;;;;5.22;56.36;94116.31;5111720;28;20028;-70
2024/01/25 02:56:49;;;;;;;0.85;0.80;;;;;;;5.22;56.20;94142.69;5111694;28;20031;-70
2024/01/25 02:59:15;;;;;;;0.80;0.80;;;;;;;5.25;56.27;94144.78;5111564;28;20020;-70
2024/01/25 03:01:41;;;;;;;0.85;0.80;;;;;;;5.06;56.79;94116.41;5111553;28;20077;-70
2024/01/25 03:04:07;;;;;;;0.90;0.80;;;;;;;5.12;56.71;94133.78;5093318;28;20023;-70
2024/01/25 03:06:32;;;;;;;1.05;1.05;;;;;;;5.21;56.48;94147.16;5111543;28;20500;-70
2024/01/25 03:08:58;;;;;;;1.17;0.70;;;;;;;4.99;56.71;94123.03;5111405;28;20505;-70
2024/01/25 03:11:23;;;;;;;2.83;0.82;;;;;;;4.92;56.65;94131.22;5111373;28;20028;-70
2024/01/25 03:13:49;;;;;;;0.98;0.90;;;;;;;4.99;56.96;94147.50;5111320;28;20026;-70
2024/01/25 03:16:14;;;;;;;1.00;0.80;;;;;;;5.08;56.65;94153.03;5111938;28;20115;-70
2024/01/25 03:18:40;;;;;;;2.83;0.80;;;;;;;5.12;56.69;94148.81;5111335;28;20051;-70
2024/01/25 03:21:05;;;;;;;1.15;1.05;;;;;;;5.14;56.53;94144.03;5111020;28;20031;-70
2024/01/25 03:23:30;;;;;;;4.03;1.95;;;;;;;5.14;56.03;94142.19;5111097;28;20036;-70
2024/01/25 03:25:56;;;;;;;3.20;1.13;;;;;;;5.07;56.49;94151.47;5111054;28;20119;-70
2024/01/25 03:28:22;;;;;;;1.88;0.90;;;;;;;4.91;56.88;94137.53;5111687;28;20027;-70
2024/01/25 03:30:47;;;;;;;2.80;1.08;;;;;;;5.09;56.47;94123.75;5111057;28;20027;-70
2024/01/25 03:33:13;;;;;;;1.20;0.98;;;;;;;5.04;55.94;94115.84;5111139;28;20062;-70
2024/01/25 03:35:38;;;;;;;1.38;0.80;;;;;;;4.97;56.00;94119.84;5092872;28;20032;-70
2024/01/25 03:38:04;;;;;;;1.65;0.90;;;;;;;5.03;56.06;94119.59;5092535;28;20024;-70
2024/01/25 03:40:29;;;;;;;1.83;1.00;;;;;;;5.01;56.47;94126.16;5093175;28;20032;-71
2024/01/25 03:42:55;;;;;;;0.80;0.80;;;;;;;5.10;56.18;94114.78;5110984;28;20543;-70
2024/01/25 03:45:20;;;;;;;2.92;0.77;;;;;;;5.01;55.80;94095.31;5111293;28;20035;-70
2024/01/25 03:47:46;;;;;;;1.75;0.90;;;;;;;5.02;55.77;94111.94;5110836;28;20070;-70
2024/01/25 03:50:11;;;;;;;0.80;0.80;;;;;;;5.01;55.66;94102.44;5110856;28;20055;-70
2024/01/25 03:52:37;;;;;;;1.20;0.80;;;;;;;5.14;55.52;94118.44;5110695;28;20484;-70
2024/01/25 03:55:03;;;;;;;3.17;0.95;;;;;;;5.19;55.12;94109.72;5111273;28;20027;-71
2024/01/25 03:57:28;;;;;;;1.33;0.80;;;;;;;5.07;54.83;94070.53;5111641;28;20039;-70
2024/01/25 03:59:53;;;;;;;3.30;1.13;;;;;;;5.18;54.92;94049.38;5114896;28;20031;-70
2024/01/25 04:02:19;;;;;;;2.08;1.00;;;;;;;5.32;54.95;94040.56;5114972;28;20028;-70
2024/01/25 04:04:44;;;;;;;0.70;0.70;;;;;;;5.10;55.50;94050.72;5115184;28;20542;-70
2024/01/25 04:07:10;;;;;;;2.92;0.98;;;;;;;5.13;55.62;94061.53;5115476;28;20020;-70
2024/01/25 04:09:35;;;;;;;0.88;0.82;;;;;;;5.27;55.44;94082.00;5114910;28;20500;-70
2024/01/25 04:12:01;;;;;;;2.33;0.85;;;;;;;5.13;55.48;94069.44;5114771;28;20557;-70
2024/01/25 04:14:26;;;;;;;1.45;1.10;;;;;;;5.21;54.96;94069.91;5114447;28;20489;-70
2024/01/25 04:16:52;;;;;;;2.25;0.95;;;;;;;5.28;54.80;94083.59;5114614;28;20342;-70
2024/01/25 04:19:17;;;;;;;2.55;0.88;;;;;;;5.16;54.34;94075.22;5115265;28;20507;-71
2024/01/25 04:21:43;;;;;;;1.00;1.00;;;;;;;5.24;54.38;94093.09;5114463;28;20467;-70
2024/01/25 04:24:08;;;;;;;0.90;0.90;;;;;;;5.10;53.89;94059.41;5114509;28;20028;-70
2024/01/25 04:26:33;;;;;;;2.13;1.00;;;;;;;5.10;53.84;94064.69;5113416;28;20066;-70
2024/01/25 04:28:59;;;;;;;1.02;0.90;;;;;;;5.11;53.83;94071.53;5114362;28;20085;-70
2024/01/25 04:31:24;;;;;;;1.65;0.95;;;;;;;5.13;53.49;94072.06;5114912;28;20429;-70
2024/01/25 04:33:50;;;;;;;1.05;1.00;;;;;;;5.11;53.31;94071.53;5114603;28;20035;-70
2024/01/25 04:36:15;;;;;;;1.60;1.20;;;;;;;5.22;52.96;94068.84;5095937;28;20036;-70
2024/01/25 04:38:41;;;;;;;1.02;0.93;;;;;;;5.27;51.96;94061.72;5095911;28;20023;-71
2024/01/25 04:41:06;;;;;;;1.30;1.20;;;;;;;5.28;52.17;94070.41;5114330;28;20032;-70
2024/01/25 04:43:38;;;;;;;1.92;1.15;;;;;;;5.24;52.05;94066.72;5114981;28;20564;-70
2024/01/25 04:46:04;;;;;;;2.25;1.05;;;;;;;5.49;51.69;94116.69;5114423;28;20040;-70
2024/01/25 04:48:30;;;;;;;1.35;1.25;;;;;;;5.47;51.08;94108.28;5114346;28;20043;-70
2024/01/25 04:50:58;;;;;;;1.13;0.90;;;;;;;5.28;50.95;94094.94;5114125;28;20569;-70
2024/01/25 04:53:24;;;;;;;2.08;1.00;;;;;;;5.30;51.11;94131.56;5114276;28;20034;-70
2024/01/25 04:55:49;;;;;;;2.80;1.00;;;;;;;5.31;50.76;94119.97;5113836;28;20020;-70
2024/01/25 04:58:15;;;;;;;2.53;1.00;;;;;;;5.24;50.62;94103.63;5114167;28;20020;-70
2024/01/25 05:00:40;;;;;;;3.17;1.70;;;;;;;5.10;50.79;94133.25;5113527;28;20035;-70
2024/01/25 05:03:06;;;;;;;2.60;1.13;;;;;;;5.19;50.43;94148.50;5113724;28;20523;-70
2024/01/25 05:05:31;;;;;;;1.83;1.30;;;;;;;5.21;50.46;94156.94;5113860;28;20038;-70
2024/01/25 05:07:57;;;;;;;2.00;1.20;;;;;;;5.21;49.89;94141.09;5113110;28;20063;-70
2024/01/25 05:10:23;;;;;;;1.65;1.08;;;;;;;4.99;49.93;94150.16;5112788;28;20084;-70
2024/01/25 05:12:48;;;;;;;2.35;1.48;;;;;;;5.05;50.35;94149.06;5113808;28;20051;-70
2024/01/25 05:15:14;;;;;;;2.65;1.17;;;;;;;4.92;50.03;94130.41;5113689;28;20546;-70
2024/01/25 05:17:39;;;;;;;3.50;1.27;;;;;;;4.74;49.99;94136.28;5095174;28;20028;-70
2024/01/25 05:20:06;;;;;;;3.67;1.30;;;;;;;4.74;50.24;94152.91;5113563;28;20668;-70
2024/01/25 05:22:31;;;;;;;3.15;1.50;;;;;;;4.89;50.12;94168.66;5114069;28;20028;-70
2024/01/25 05:24:57;;;;;;;3.63;1.42;;;;;;;4.90;50.30;94178.13;5113180;28;20460;-70
2024/01/25 05:27:23;;;;;;;1.38;1.00;;;;;;;4.58;50.34;94152.13;5112563;28;20043;-70
2024/01/25 05:29:49;;;;;;;2.55;1.42;;;;;;;4.93;49.98;94182.88;5111858;28;20531;-70
2024/01/25 05:32:14;;;;;;;4.30;2.10;;;;;;;4.89;50.23;94195.03;5111788;28;20127;-70
2024/01/25 05:34:39;;;;;;;7.72;2.08;;;;;;;4.88;49.85;94168.91;5112039;28;20089;-71
2024/01/25 05:37:05;;;;;;;5.95;2.88;;;;;;;4.79;50.16;94175.81;5112177;28;20012;-70
2024/01/25 05:39:30;;;;;;;3.15;1.65;;;;;;;4.80;49.96;94162.34;5092858;28;20031;-70
2024/01/25 05:41:56;;;;;;;4.60;2.40;;;;;;;4.92;49.82;94175.22;5110341;28;20050;-70
2024/01/25 05:44:21;;;;;;;6.90;2.13;;;;;;;4.74;50.28;94187.16;5111612;28;20042;-69
2024/01/25 05:46:47;;;;;;;5.22;2.58;;;;;;;4.64;50.70;94182.69;5111425;28;20019;-69
2024/01/25 05:49:12;;;;;;;3.78;2.03;;;;;;;4.54;51.35;94176.66;5111838;28;20015;-69
2024/01/25 05:51:37;;;;;;;3.78;1.58;;;;;;;4.65;51.03;94202.69;5111841;28;20034;-69
2024/01/25 05:54:03;;;;;;;5.15;2.85;;;;;;;4.50;51.20;94184.28;5110894;28;20031;-69
2024/01/25 05:56:28;;;;;;;5.38;1.60;;;;;;;4.57;51.12;94226.16;5111335;28;20504;-69
2024/01/25 05:58:54;;;;;;;4.22;1.55;;;;;;;4.37;51.48;94210.38;5111337;28;20060;-70
2024/01/25 06:01:19;;;;;;;6.00;2.00;;;;;;;4.41;51.56;94221.94;5093599;28;20016;-69
2024/01/25 06:03:45;;;;;;;5.25;2.28;;;;;;;4.62;51.30;94228.78;5111256;28;20548;-70
2024/01/25 06:06:10;;;;;;;6.38;2.03;;;;;;;4.50;51.62;94223.00;5110910;28;20028;-69
2024/01/25 06:08:36;;;;;;;4.32;1.90;;;;;;;4.41;51.85;94214.84;5110952;28;20482;-69
2024/01/25 06:11:01;;;;;;;6.35;1.95;;;;;;;4.64;51.84;94238.00;5092834;28;20030;-69
2024/01/25 06:13:27;;;;;;;4.00;2.05;;;;;;;4.71;51.41;94227.19;5111596;28;20019;-69
2024/01/25 06:15:52;;;;;;;3.78;1.95;;;;;;;4.69;51.35;94226.69;5111121;28;20032;-70
2024/01/25 06:18:18;;;;;;;6.05;2.13;;;;;;;4.58;51.17;94233.00;5111207;28;20358;-69
2024/01/25 06:20:44;;;;;;;4.82;2.03;;;;;;;4.61;51.76;94248.28;5110492;28;20024;-70
2024/01/25 06:23:09;;;;;;;3.13;2.38;;;;;;;4.58;51.18;94233.00;5110326;28;20031;-69
2024/01/25 06:25:35;;;;;;;2.38;1.77;;;;;;;4.80;50.96;94251.94;5110464;28;20079;-70
2024/01/25 06:28:01;;;;;;;5.72;2.50;;;;;;;4.71;51.29;94237.72;5111452;28;20027;-70
2024/01/25 06:30:27;;;;;;;2.95;1.80;;;;;;;4.41;51.28;94195.59;5110754;28;20114;-70
2024/01/25 06:32:53;;;;;;;6.07;2.22;;;;;;;4.70;51.26;94233.50;5110300;28;20445;-70
2024/01/25 06:35:18;;;;;;;3.63;1.95;;;;;;;4.65;51.75;94233.50;5091885;28;20028;-70
2024/01/25 06:37:44;;;;;;;3.42;1.85;;;;;;;4.51;51.92;94241.16;5110285;28;20028;-68
2024/01/25 06:40:09;;;;;;;4.68;1.90;;;;;;;4.56;51.95;94235.09;5110400;28;20020;-68
2024/01/25 06:42:35;;;;;;;2.60;2.08;;;;;;;4.38;52.08;94227.75;5109957;28;20032;-70
2024/01/25 06:45:00;;;;;;;9.68;3.40;;;;;;;4.39;52.38;94245.94;5110135;28;20066;-70
2024/01/25 06:47:26;;;;;;;5.38;1.90;;;;;;;4.14;52.57;94230.88;5109906;28;20148;-70
2024/01/25 06:49:51;;;;;;;5.15;1.90;;;;;;;4.33;52.29;94238.28;5109969;28;20047;-70
2024/01/25 06:52:26;;;;;;;4.50;2.38;;;;;;;4.23;52.35;94246.94;5107496;27;20463;-70
2024/01/25 06:54:51;;;;;;;10.40;3.00;;;;;;;4.23;52.48;94242.47;5049128;28;20041;-70
2024/01/25 06:57:17;;;;;;;3.38;2.10;;;;;;;4.08;52.43;94231.91;5046677;28;20039;-71
2024/01/25 06:59:42;;;;;;;5.85;2.38;;;;;;;4.22;52.95;94251.41;5046687;28;20033;-69
2024/01/25 07:02:08;;;;;;;6.13;2.40;;;;;;;4.51;51.97;94278.03;5046533;28;20061;-69
2024/01/25 07:04:33;;;;;;;11.65;3.35;;;;;;;4.40;51.92;94267.78;5044866;28;20021;-69
2024/01/25 07:07:00;;;;;;;5.65;2.40;;;;;;;4.53;51.59;94264.63;5046748;28;20018;-69
2024/01/25 07:09:25;;;;;;;3.67;2.13;;;;;;;4.51;50.76;94253.53;5046524;28;20053;-69
2024/01/25 07:11:51;;;;;;;5.68;2.85;;;;;;;4.48;51.01;94262.78;5046527;28;20072;-69
2024/01/25 07:14:17;;;;;;;6.20;2.65;;;;;;;4.51;51.11;94243.81;5046391;28;20044;-69
2024/01/25 07:16:42;;;;;;;8.30;3.22;;;;;;;4.70;50.47;94241.41;5046343;28;20021;-69
2024/01/25 07:19:08;;;;;;;6.00;3.33;;;;;;;4.37;50.95;94200.63;5046612;28;20477;-68
2024/01/25 07:21:33;;;;;;;6.38;2.45;;;;;;;4.55;51.21;94217.75;5046073;28;20029;-69
2024/01/25 07:24:04;;;;;;;7.13;3.65;;;;;;;4.64;50.78;94229.31;5046106;28;20033;-69
2024/01/25 07:26:30;;;;;;;5.85;2.83;;;;;;;4.68;50.60;94217.19;5046117;28;20068;-68
2024/01/25 07:28:58;;;;;;;6.85;2.90;;;;;;;4.61;50.16;94219.28;5045949;28;20029;-69
2024/01/25 07:31:27;;;;;;;7.72;2.25;;;;;;;4.49;50.25;94227.50;5044818;28;20590;-69
2024/01/25 07:33:53;;;;;;;5.90;2.97;;;;;;;4.50;50.81;94228.28;5045657;28;20048;-69
2024/01/25 07:36:20;;;;;;;9.90;2.97;;;;;;;4.38;50.67;94209.31;5045660;28;20079;-69
2024/01/25 07:38:46;;;;;;;9.90;3.72;;;;;;;4.43;50.86;94223.28;5045983;28;20037;-69
2024/01/25 07:41:13;;;;;;;5.18;2.33;;;;;;;4.53;50.43;94235.66;5045907;28;20095;-69
2024/01/25 07:43:38;;;;;;;6.00;2.90;;;;;;;4.46;50.63;94235.09;5047202;28;20021;-69
2024/01/25 07:46:04;;;;;;;7.07;3.50;;;;;;;4.45;50.99;94242.25;5086123;28;20015;-69
2024/01/25 07:48:29;;;;;;;7.10;2.90;;;;;;;4.45;50.37;94233.56;5085982;28;20455;-69
2024/01/25 07:50:54;;;;;;;6.60;2.92;;;;;;;4.49;50.88;94255.66;5085415;28;20049;-69
2024/01/25 07:53:20;;;;;;;6.63;3.05;;;;;;;4.42;50.29;94241.97;5085790;28;20089;-69
2024/01/25 07:55:45;;;;;;;8.57;2.90;;;;;;;4.20;50.79;94242.22;5085505;28;20110;-69
2024/01/25 07:58:11;;;;;;;9.57;2.85;;;;;;;4.51;50.28;94254.34;5086091;28;20106;-69
2024/01/25 08:00:36;;;;;;;7.82;3.30;;;;;;;4.55;50.20;94254.63;5085418;28;20059;-69
2024/01/25 08:03:02;;;;;;;9.20;2.90;;;;;;;4.56;50.15;94267.50;5075790;28;20033;-69
2024/01/25 08:05:28;;;;;;;6.35;2.97;;;;;;;4.53;49.96;94273.31;5071881;28;20028;-69
2024/01/25 08:07:53;;;;;;;7.38;3.45;;;;;;;4.45;50.45;94270.44;5071947;28;20028;-69
2024/01/25 08:10:19;;;;;;;7.45;3.72;;;;;;;4.35;50.43;94262.53;5072285;28;20121;-69
2024/01/25 08:12:47;;;;;;;10.60;3.08;;;;;;;4.43;50.21;94246.19;5070572;28;20056;-69
2024/01/25 08:15:13;;;;;;;8.27;3.67;;;;;;;4.36;49.78;94250.91;5071932;28;20032;-69
2024/01/25 08:17:38;;;;;;;8.00;3.55;;;;;;;4.33;49.78;94240.91;5070492;28;20035;-69
2024/01/25 08:20:06;;;;;;;9.73;3.58;;;;;;;4.48;49.83;94260.16;5071648;28;20031;-69
2024/01/25 08:22:32;;;;;;;9.00;4.60;;;;;;;4.44;49.87;94247.78;5071954;28;20024;-69
2024/01/25 08:24:57;;;;;;;9.93;3.53;;;;;;;4.27;49.93;94240.88;5071544;28;20040;-69
2024/01/25 08:27:23;;;;;;;10.05;4.38;;;;;;;4.35;49.92;94233.56;5070266;28;20040;-69
2024/01/25 08:29:48;;;;;;;6.65;2.92;;;;;;;4.42;49.91;94220.91;5071607;28;20390;-69
2024/01/25 08:32:13;;;;;;;10.23;3.67;;;;;;;4.49;49.57;94229.34;5071174;28;20515;-69
2024/01/25 08:34:39;;;;;;;10.40;3.42;;;;;;;4.47;49.39;94231.44;5070867;28;20438;-70
2024/01/25 08:37:04;;;;;;;12.45;4.63;;;;;;;4.50;49.16;94215.88;5071991;28;20025;-69
2024/01/25 08:39:30;;;;;;;6.07;4.10;;;;;;;4.56;49.16;94224.56;5071112;28;20036;-69
2024/01/25 08:41:57;;;;;;;14.45;5.47;;;;;;;4.55;49.49;94238.81;5071209;28;20085;-69
2024/01/25 08:44:22;;;;;;;16.45;5.13;;;;;;;4.40;49.49;94226.44;5071122;28;20511;-69
2024/01/25 08:46:47;;;;;;;8.80;3.60;;;;;;;4.56;49.26;94245.63;5070973;28;20024;-69
2024/01/25 08:49:13;;;;;;;8.50;4.15;;;;;;;4.64;49.02;94258.31;5071601;28;20099;-70
2024/01/25 08:51:38;;;;;;;10.30;4.55;;;;;;;4.49;49.26;94256.47;5070813;28;20140;-70
2024/01/25 08:54:04;;;;;;;7.65;3.55;;;;;;;4.34;50.00;94232.75;5070940;28;20123;-69
2024/01/25 08:56:29;;;;;;;9.18;3.65;;;;;;;4.56;49.23;94258.81;5071040;28;20040;-69
2024/01/25 08:58:55;;;;;;;12.95;5.07;;;;;;;4.54;50.50;94263.56;5070903;28;20118;-69
2024/01/25 09:01:21;;;;;;;14.63;6.80;;;;;;;4.53;49.84;94277.78;5071311;28;20020;-70
2024/01/25 09:03:46;;;;;;;8.18;3.70;;;;;;;4.49;50.49;94269.63;5070731;28;20040;-69
2024/01/25 09:06:12;;;;;;;15.30;6.00;;;;;;;4.56;50.19;94261.44;5070804;28;20028;-69
2024/01/25 09:08:38;;;;;;;7.72;3.03;;;;;;;4.70;49.98;94283.56;5069368;28;20053;-70
2024/01/25 09:11:03;;;;;;;5.68;3.05;;;;;;;4.75;49.49;94270.38;5070790;28;20064;-70
2024/01/25 09:13:29;;;;;;;9.52;4.60;;;;;;;4.85;49.41;94265.09;5070461;28;20021;-69
2024/01/25 09:15:55;;;;;;;7.57;4.05;;;;;;;4.90;50.09;94274.84;5070236;28;20120;-70
2024/01/25 09:18:21;;;;;;;6.85;3.05;;;;;;;4.79;49.05;94258.28;5070727;28;20044;-69
2024/01/25 09:20:47;;;;;;;7.78;3.17;;;;;;;4.78;49.35;94254.06;5070107;28;20032;-70
2024/01/25 09:23:14;;;;;;;12.05;5.13;;;;;;;5.01;49.45;94271.94;5070133;28;20041;-69
2024/01/25 09:25:41;;;;;;;12.98;3.25;;;;;;;4.92;49.35;94252.47;5070451;28;20483;-69
2024/01/25 09:28:06;;;;;;;9.90;4.25;;;;;;;5.08;49.00;94248.75;5070744;28;20063;-69
2024/01/25 09:30:32;;;;;;;7.57;3.45;;;;;;;4.89;48.86;94218.75;5070491;28;20088;-69
2024/01/25 09:32:57;;;;;;;7.45;3.70;;;;;;;5.13;48.94;94240.81;5068938;28;20063;-70
2024/01/25 09:35:23;;;;;;;7.88;3.42;;;;;;;5.33;49.06;94257.63;5068723;28;20449;-70
2024/01/25 09:37:52;;;;;;;8.40;2.65;;;;;;;5.26;48.89;94243.94;5070145;28;20666;-69
2024/01/25 09:40:23;;;;;;;7.97;2.83;;;;;;;5.47;48.35;94245.44;5070622;28;20024;-69
2024/01/25 09:42:51;;;;;;;10.07;2.95;;;;;;;5.66;47.87;94235.84;5070215;28;20491;-69
2024/01/25 09:45:18;;;;;;;10.07;2.63;;;;;;;5.45;48.13;94226.44;5069913;28;20037;-70
2024/01/25 09:47:45;;;;;;;12.00;4.07;;;;;;;5.49;48.43;94232.75;5070059;28;20029;-70
2024/01/25 09:50:10;;;;;;;12.05;3.25;;;;;;;5.57;48.60;94240.13;5069815;28;20037;-70
2024/01/25 09:52:36;;;;;;;7.97;3.13;;;;;;;5.51;48.39;94215.63;5069385;28;20035;-69
2024/01/25 09:55:02;;;;;;;10.02;3.58;;;;;;;5.50;48.43;94194.78;5069641;28;20035;-70
2024/01/25 09:57:30;;;;;;;12.30;3.75;;;;;;;5.78;48.09;94219.69;5069002;28;20039;-69
2024/01/25 09:59:56;;;;;;;10.98;3.83;;;;;;;5.72;48.23;94199.69;5069632;28;20028;-70
2024/01/25 10:02:22;;;;;;;7.75;3.95;;;;;;;5.99;47.65;94211.38;5069965;28;20043;-69
2024/01/25 10:04:51;;;;;;;7.93;3.20;;;;;;;5.88;47.31;94206.44;5069583;28;20125;-69
2024/01/25 10:07:35;;;;;;;37.00;5.90;;;;;;;5.85;46.91;94191.94;5070331;28;20035;-70
2024/01/25 10:10:00;;;;;;;6.80;2.85;;;;;;;5.63;47.66;94212.63;5069812;28;20070;-70
2024/01/25 10:12:26;;;;;;;10.27;3.72;;;;;;;5.35;48.49;94190.34;5069514;28;20037;-70
2024/01/25 10:14:51;;;;;;;5.20;2.75;;;;;;;5.40;48.36;94184.25;5069450;28;20032;-70
2024/01/25 10:17:17;;;;;;;7.38;3.40;;;;;;;5.24;48.61;94164.28;5069539;28;20058;-69
2024/01/25 10:19:44;;;;;;;8.18;2.80;;;;;;;5.30;48.30;94165.84;5069645;28;20028;-69
2024/01/25 10:22:12;;;;;;;7.35;3.00;;;;;;;5.34;48.63;94180.84;5070053;28;20016;-70
2024/01/25 10:24:38;;;;;;;10.63;2.75;;;;;;;5.44;48.61;94198.47;5068195;28;20036;-69
2024/01/25 10:27:04;;;;;;;8.77;3.63;;;;;;;5.49;48.95;94186.06;5069237;28;20039;-69
2024/01/25 10:29:29;;;;;;;9.50;3.35;;;;;;;5.69;48.68;94181.72;5069329;28;20033;-69
2024/01/25 10:31:55;;;;;;;8.27;3.25;;;;;;;5.64;48.61;94182.56;5069340;28;20033;-70
2024/01/25 10:34:22;;;;;;;7.60;4.47;;;;;;;5.84;47.62;94160.53;5069549;28;20029;-69
2024/01/25 10:36:49;;;;;;;9.93;3.53;;;;;;;6.03;47.40;94179.94;5069759;28;20029;-70
2024/01/25 10:39:17;;;;;;;9.15;4.05;;;;;;;5.96;47.37;94188.16;5069517;28;20127;-69
2024/01/25 10:41:45;;;;;;;8.07;3.78;;;;;;;6.00;47.14;94191.84;5069240;28;20089;-70
2024/01/25 10:44:10;;;;;;;10.60;2.97;;;;;;;6.10;47.02;94192.81;5069369;28;20021;-70
2024/01/25 10:46:38;;;;;;;10.30;3.95;;;;;;;5.91;46.97;94177.66;5069216;28;20030;-70
2024/01/25 10:49:03;;;;;;;8.82;2.83;;;;;;;5.87;47.36;94166.03;5069783;28;20012;-70
2024/01/25 10:51:30;;;;;;;8.43;3.00;;;;;;;5.79;47.07;94158.72;5067607;28;20045;-70
2024/01/25 10:53:55;;;;;;;6.38;2.53;;;;;;;5.87;46.83;94154.72;5067897;28;20081;-69
2024/01/25 10:56:21;;;;;;;5.93;2.90;;;;;;;5.93;46.15;94158.88;5069135;28;20403;-70
2024/01/25 10:58:47;;;;;;;6.72;3.00;;;;;;;5.84;45.81;94156.03;5067685;28;20024;-71
2024/01/25 11:01:13;;;;;;;10.40;4.05;;;;;;;5.63;46.34;94159.84;5070129;28;20043;-70
2024/01/25 11:03:42;;;;;;;5.03;2.70;;;;;;;5.66;46.27;94154.06;5069459;28;20058;-70
2024/01/25 11:06:11;;;;;;;7.63;3.03;;;;;;;5.62;45.94;94136.41;5067783;28;20033;-70
2024/01/25 11:08:40;;;;;;;6.20;3.08;;;;;;;5.58;46.62;94146.69;5069011;28;20569;-71
2024/01/25 11:11:10;;;;;;;7.30;2.70;;;;;;;5.83;46.79;94153.66;5068969;28;20127;-70
2024/01/25 11:13:40;;;;;;;5.57;3.05;;;;;;;5.87;46.44;94134.34;5068809;28;20036;-70
2024/01/25 11:16:16;;;;;;;7.20;3.25;;;;;;;6.04;45.70;94126.06;5069257;28;20017;-70
2024/01/25 11:18:52;;;;;;;7.70;3.13;;;;;;;5.86;45.80;94109.03;5068937;28;20033;-70
2024/01/25 11:21:42;;;;;;;4.47;2.95;;;;;;;5.97;45.55;94122.94;5068761;28;20116;-69
2024/01/25 11:24:21;;;;;;;6.80;2.75;;;;;;;5.68;46.10;94107.06;5065719;28;20123;-70
2024/01/25 11:26:47;;;;;;;7.10;2.92;;;;;;;5.91;45.94;94109.00;5068971;28;20033;-70
2024/01/25 11:29:16;;;;;;;12.32;3.25;;;;;;;5.74;46.23;94103.31;5068756;28;20086;-69
2024/01/25 11:31:45;;;;;;;9.98;2.90;;;;;;;5.73;46.67;94090.38;5068591;28;20044;-70
2024/01/25 11:34:11;;;;;;;6.43;2.92;;;;;;;5.80;45.65;94110.16;5067875;28;20052;-69